Time;durP1;ratioP1;P1;durP2;ratioP2;P2;SDS_P1;SDS_P2;PMS_P1;PMS_P2;Temp;Humidity;BMP_temperature;BMP_pressure;BME280_temperature;BME280_humidity;BME280_pressure;Samples;Min_cycle;Max_cycle;Signal;HPM_P1;HPM_P2
2023/03/06 00:00:50;;;;;;;48.37;12.90;;;13.60;54.60;;;;;;5066651;28;20256;-91
2023/03/06 00:03:17;;;;;;;50.13;13.27;;;13.70;54.60;;;;;;5068782;28;20216;-92
2023/03/06 00:05:45;;;;;;;45.73;12.87;;;13.70;54.60;;;;;;5067750;28;20647;-93
2023/03/06 00:08:12;;;;;;;43.03;13.17;;;13.50;54.40;;;;;;5051491;28;20221;-91
2023/03/06 00:10:40;;;;;;;43.47;13.37;;;13.70;54.60;;;;;;5048835;28;20764;-92
2023/03/06 00:13:10;;;;;;;40.50;12.87;;;13.60;54.50;;;;;;5061684;28;20217;-92
2023/03/06 00:15:38;;;;;;;40.00;12.63;;;13.60;54.50;;;;;;5068745;28;20198;-92
2023/03/06 00:18:07;;;;;;;41.87;12.87;;;13.60;54.50;;;;;;5053256;28;20681;-91
2023/03/06 00:20:35;;;;;;;61.07;14.83;;;13.60;54.60;;;;;;5047288;28;20295;-92
2023/03/06 00:23:03;;;;;;;46.37;12.47;;;13.60;54.50;;;;;;5047888;28;20247;-93
2023/03/06 00:25:30;;;;;;;49.57;13.00;;;13.60;54.50;;;;;;5048319;28;20208;-92
2023/03/06 00:27:57;;;;;;;61.13;14.97;;;13.60;54.50;;;;;;5047317;28;20203;-92
2023/03/06 00:30:25;;;;;;;49.23;13.83;;;13.60;54.50;;;;;;5047059;28;20203;-92
2023/03/06 00:33:20;;;;;;;63.27;14.80;;;13.60;54.50;;;;;;5047873;28;20551;-92
2023/03/06 00:35:46;;;;;;;49.90;14.63;;;13.60;54.50;;;;;;5046677;28;20200;-93
2023/03/06 00:38:15;;;;;;;46.20;13.07;;;13.60;54.50;;;;;;5048209;28;20237;-93
2023/03/06 00:40:42;;;;;;;48.40;13.83;;;13.60;54.60;;;;;;5047655;28;20530;-92
2023/03/06 00:43:09;;;;;;;61.23;14.70;;;13.60;55.10;;;;;;5047721;28;20289;-92
2023/03/06 00:45:36;;;;;;;45.90;12.77;;;13.60;54.60;;;;;;5047334;28;20203;-93
2023/03/06 00:48:03;;;;;;;51.80;13.47;;;13.60;54.60;;;;;;5048547;28;20207;-93
2023/03/06 00:50:30;;;;;;;50.63;13.10;;;13.60;54.60;;;;;;5037865;28;20197;-94
2023/03/06 00:52:57;;;;;;;47.20;13.03;;;13.50;54.50;;;;;;5048638;28;20286;-92
2023/03/06 00:55:25;;;;;;;46.87;13.37;;;13.50;54.50;;;;;;5047379;28;20206;-93
2023/03/06 00:57:53;;;;;;;61.27;14.27;;;13.60;54.60;;;;;;5047251;28;20310;-93
2023/03/06 01:00:20;;;;;;;51.20;14.07;;;13.60;54.60;;;;;;5048029;28;20295;-92
2023/03/06 01:02:49;;;;;;;67.73;15.47;;;13.60;54.50;;;;;;5045456;28;20281;-92
2023/03/06 01:05:16;;;;;;;48.10;13.43;;;13.50;54.50;;;;;;5028114;28;20210;-93
2023/03/06 01:07:43;;;;;;;64.80;14.77;;;13.50;54.50;;;;;;5033942;28;20291;-92
2023/03/06 01:10:12;;;;;;;47.97;13.97;;;13.50;54.50;;;;;;5033791;28;20206;-92
2023/03/06 01:12:40;;;;;;;75.97;15.47;;;13.50;54.50;;;;;;5047504;28;20416;-93
2023/03/06 01:15:08;;;;;;;49.40;14.37;;;13.50;54.50;;;;;;5048752;28;20243;-93
2023/03/06 01:17:35;;;;;;;45.83;14.07;;;13.50;54.50;;;;;;5048571;28;20223;-95
2023/03/06 01:20:02;;;;;;;49.57;14.07;;;13.50;54.40;;;;;;5047818;28;20204;-95
2023/03/06 01:22:29;;;;;;;66.03;14.77;;;13.50;54.50;;;;;;5048112;28;20666;-95
2023/03/06 01:24:56;;;;;;;45.30;13.83;;;13.50;54.50;;;;;;5052455;28;20250;-94
2023/03/06 01:27:23;;;;;;;44.03;13.40;;;13.50;54.50;;;;;;5050195;28;20208;-94
2023/03/06 01:29:51;;;;;;;48.10;13.50;;;13.50;54.50;;;;;;5051265;28;20259;-96
2023/03/06 01:32:18;;;;;;;43.00;14.17;;;13.50;54.50;;;;;;5052263;28;20220;-95
2023/03/06 01:34:45;;;;;;;48.47;13.90;;;13.60;54.60;;;;;;5052431;28;20291;-94
2023/03/06 01:37:12;;;;;;;61.17;14.30;;;13.50;54.50;;;;;;5051624;28;20243;-93
2023/03/06 01:39:39;;;;;;;44.63;13.70;;;13.50;54.50;;;;;;5052031;28;20237;-94
2023/03/06 01:42:07;;;;;;;54.43;14.37;;;13.50;54.50;;;;;;5050496;28;20210;-92
2023/03/06 01:44:34;;;;;;;51.73;14.07;;;13.50;54.50;;;;;;5049295;28;20612;-92
2023/03/06 01:47:02;;;;;;;73.27;15.57;;;13.50;54.50;;;;;;5049395;28;20281;-92
2023/03/06 01:49:34;;;;;;;49.10;13.87;;;13.50;54.40;;;;;;5050443;28;20222;-92
2023/03/06 01:52:04;;;;;;;54.57;14.40;;;13.50;54.50;;;;;;5050601;28;20217;-92
2023/03/06 01:54:36;;;;;;;55.80;14.77;;;13.50;54.50;;;;;;5051709;28;20503;-92
2023/03/06 01:57:07;;;;;;;42.00;13.90;;;13.50;54.40;;;;;;5052881;28;20207;-92
2023/03/06 01:59:36;;;;;;;44.50;13.07;;;13.50;54.50;;;;;;5050190;28;20235;-93
2023/03/06 02:02:06;;;;;;;43.77;14.70;;;13.40;54.40;;;;;;5051194;28;20217;-93
2023/03/06 02:04:44;;;;;;;;;;;;;;;;;;;;;
2023/03/06 02:07:12;;;;;;;51.67;14.57;;;13.50;54.50;;;;;;5048846;28;20215;-93
2023/03/06 02:09:39;;;;;;;52.00;14.73;;;13.40;54.40;;;;;;5050445;28;20212;-93
2023/03/06 02:12:22;;;;;;;60.30;15.27;;;13.50;54.50;;;;;;5050627;28;20214;-93
2023/03/06 02:14:50;;;;;;;55.70;15.67;;;13.40;54.40;;;;;;5051094;28;20264;-93
2023/03/06 02:17:19;;;;;;;51.50;14.63;;;13.40;54.30;;;;;;5051076;28;20223;-93
2023/03/06 02:19:56;;;;;;;51.13;14.90;;;13.40;54.30;;;;;;5040213;28;20236;-92
2023/03/06 02:22:49;;;;;;;;;;;;;;;;;;;;;
2023/03/06 02:25:33;;;;;;;46.80;14.30;;;13.40;54.40;;;;;;5041292;28;20543;-93
2023/03/06 02:28:00;;;;;;;61.23;15.47;;;13.40;54.30;;;;;;5031378;28;20240;-92
2023/03/06 02:30:29;;;;;;;55.97;14.70;;;13.40;54.40;;;;;;5034571;28;20667;-92
2023/03/06 02:32:56;;;;;;;55.60;15.27;;;13.40;54.40;;;;;;5050524;28;20283;-92
2023/03/06 02:35:25;;;;;;;43.30;14.53;;;13.40;54.40;;;;;;5050356;28;20309;-93
2023/03/06 02:37:53;;;;;;;53.10;15.10;;;13.40;54.40;;;;;;5059703;28;20199;-92
2023/03/06 02:40:22;;;;;;;48.47;14.90;;;13.40;54.40;;;;;;5070186;28;20188;-92
2023/03/06 02:42:55;;;;;;;49.53;15.07;;;13.40;54.40;;;;;;5054049;28;20297;-92
2023/03/06 02:45:37;;;;;;;53.03;14.90;;;13.40;54.40;;;;;;5046958;28;20196;-92
2023/03/06 02:48:05;;;;;;;45.97;14.73;;;13.40;54.40;;;;;;5057489;28;20327;-93
2023/03/06 02:50:32;;;;;;;57.97;15.30;;;13.40;54.40;;;;;;5050034;28;20684;-92
2023/03/06 02:55:40;;;;;;;49.77;14.63;;;13.40;54.30;;;;;;5049268;28;20287;-92
2023/03/06 02:58:09;;;;;;;43.13;14.20;;;13.40;54.40;;;;;;5049949;28;20796;-92
2023/03/06 03:00:36;;;;;;;45.47;15.07;;;13.40;54.40;;;;;;5048981;28;20208;-93
2023/03/06 03:03:04;;;;;;;50.03;14.60;;;13.30;54.30;;;;;;5050109;28;20211;-94
2023/03/06 03:05:32;;;;;;;45.07;14.17;;;13.30;54.30;;;;;;5049635;28;20212;-92
2023/03/06 03:07:59;;;;;;;48.73;13.73;;;13.30;54.30;;;;;;5050329;28;20203;-93
2023/03/06 03:10:26;;;;;;;46.37;14.03;;;13.30;54.30;;;;;;5049668;28;20335;-92
2023/03/06 03:12:53;;;;;;;45.97;14.10;;;13.40;54.40;;;;;;5049666;28;20215;-93
2023/03/06 03:15:22;;;;;;;51.97;15.35;;;13.40;54.40;;;;;;5049502;28;20445;-92
2023/03/06 03:17:49;;;;;;;49.50;15.17;;;13.30;54.30;;;;;;5047394;28;20224;-92
2023/03/06 03:20:19;;;;;;;48.17;15.03;;;13.50;54.50;;;;;;5047872;28;20224;-93
2023/03/06 03:25:34;;;;;;;44.20;13.83;;;13.30;54.30;;;;;;5054305;22;20241;-93
2023/03/06 03:28:01;;;;;;;52.87;13.83;;;13.30;54.30;;;;;;5049561;28;20971;-94
2023/03/06 03:30:29;;;;;;;47.87;14.57;;;13.30;54.30;;;;;;5049074;28;20209;-95
2023/03/06 03:32:56;;;;;;;61.73;14.90;;;13.30;54.30;;;;;;5049791;28;20215;-94
2023/03/06 03:35:23;;;;;;;43.47;14.17;;;13.30;54.30;;;;;;5053580;28;20219;-93
2023/03/06 03:37:51;;;;;;;54.73;15.47;;;13.40;54.40;;;;;;5044408;28;20215;-93
2023/03/06 03:40:18;;;;;;;45.07;13.40;;;13.30;54.30;;;;;;5048551;28;20226;-94
2023/03/06 03:42:45;;;;;;;57.47;15.20;;;13.30;54.30;;;;;;5049550;28;20246;-91
2023/03/06 03:45:13;;;;;;;47.30;13.50;;;13.30;54.30;;;;;;5048694;28;20324;-93
2023/03/06 03:47:41;;;;;;;52.20;14.53;;;13.30;54.30;;;;;;5046737;28;20229;-93
2023/03/06 03:50:10;;;;;;;47.83;14.43;;;13.30;54.30;;;;;;5048946;28;20238;-95
2023/03/06 03:52:37;;;;;;;50.83;13.73;;;13.30;54.30;;;;;;5049885;28;20202;-95
2023/03/06 03:55:05;;;;;;;53.60;14.53;;;13.30;54.30;;;;;;5049731;28;20216;-93
2023/03/06 03:57:32;;;;;;;46.03;14.23;;;13.20;54.20;;;;;;5049318;28;20204;-94
2023/03/06 04:00:06;;;;;;;51.47;14.13;;;13.20;54.20;;;;;;5049322;28;20241;-93
2023/03/06 04:02:33;;;;;;;44.73;13.63;;;13.20;54.30;;;;;;5049223;28;20203;-94
2023/03/06 04:05:03;;;;;;;49.93;15.13;;;13.20;54.20;;;;;;5051023;28;20740;-94
2023/03/06 04:07:30;;;;;;;47.23;14.57;;;13.20;54.20;;;;;;5049571;28;20242;-92
2023/03/06 04:09:57;;;;;;;58.40;14.87;;;13.20;54.20;;;;;;5048453;28;20298;-90
2023/03/06 04:12:24;;;;;;;57.90;14.60;;;13.20;54.20;;;;;;5048070;28;20195;-93
2023/03/06 04:14:51;;;;;;;48.17;14.10;;;13.30;54.30;;;;;;5048989;28;20208;-94
2023/03/06 04:17:18;;;;;;;48.67;14.07;;;13.30;54.30;;;;;;5049212;28;20224;-95
2023/03/06 04:19:45;;;;;;;52.30;15.20;;;13.20;54.30;;;;;;5047886;28;20224;-93
2023/03/06 04:22:13;;;;;;;50.57;14.77;;;13.20;54.30;;;;;;5048944;28;20223;-92
2023/03/06 04:24:40;;;;;;;65.77;16.10;;;13.20;54.20;;;;;;5047841;28;20220;-92
2023/03/06 04:27:07;;;;;;;51.40;14.47;;;13.30;54.30;;;;;;5048197;28;20210;-92
2023/03/06 04:29:34;;;;;;;42.60;13.60;;;13.20;54.30;;;;;;5045082;28;20218;-92
2023/03/06 04:32:01;;;;;;;44.93;14.20;;;13.20;54.30;;;;;;5046034;28;20201;-91
2023/03/06 04:34:28;;;;;;;59.97;15.57;;;13.20;54.30;;;;;;5045984;28;20261;-93
2023/03/06 04:36:55;;;;;;;43.57;13.73;;;13.20;54.20;;;;;;5046471;28;20265;-92
2023/03/06 04:39:23;;;;;;;67.07;16.07;;;13.20;54.30;;;;;;5047038;28;20234;-93
2023/03/06 04:41:51;;;;;;;44.40;13.97;;;13.20;54.80;;;;;;5048518;28;20207;-92
2023/03/06 04:44:18;;;;;;;43.80;13.30;;;13.20;54.30;;;;;;5048580;28;20208;-91
2023/03/06 04:46:45;;;;;;;47.60;15.23;;;13.20;54.30;;;;;;5048769;28;20238;-92
2023/03/06 04:49:15;;;;;;;54.40;14.97;;;13.20;54.20;;;;;;5048087;28;20207;-92
2023/03/06 04:51:43;;;;;;;49.63;14.03;;;13.20;54.30;;;;;;5047999;28;20208;-91
2023/03/06 04:54:10;;;;;;;55.37;13.83;;;13.20;54.30;;;;;;5045834;28;20204;-91
2023/03/06 04:56:38;;;;;;;41.40;13.43;;;13.20;54.30;;;;;;5046747;28;20231;-91
2023/03/06 04:59:05;;;;;;;39.23;13.17;;;13.20;54.30;;;;;;5050444;28;20237;-91
2023/03/06 05:04:22;;;;;;;56.53;14.53;;;13.20;54.20;;;;;;5030178;28;20261;-91
2023/03/06 05:06:49;;;;;;;45.77;14.17;;;13.30;54.30;;;;;;5052906;28;20676;-91
2023/03/06 05:09:29;;;;;;;54.93;15.20;;;13.20;54.30;;;;;;5051678;28;20280;-92
2023/03/06 05:12:05;;;;;;;47.27;13.33;;;13.20;54.80;;;;;;5052018;28;20281;-92
2023/03/06 05:14:32;;;;;;;46.20;13.30;;;13.10;54.20;;;;;;5050158;28;20293;-91
2023/03/06 05:16:59;;;;;;;52.90;14.87;;;13.20;54.30;;;;;;5051509;28;20223;-91
2023/03/06 05:19:26;;;;;;;44.57;14.67;;;13.10;54.20;;;;;;5051353;28;20228;-91
2023/03/06 05:21:53;;;;;;;51.80;14.40;;;13.20;54.30;;;;;;5052286;28;20296;-90
2023/03/06 05:24:20;;;;;;;82.60;17.03;;;13.10;54.20;;;;;;5046866;28;20297;-89
2023/03/06 05:26:47;;;;;;;39.27;12.90;;;13.10;54.20;;;;;;5051087;28;20315;-91
2023/03/06 05:29:15;;;;;;;55.13;14.63;;;13.20;54.30;;;;;;5037687;28;20197;-91
2023/03/06 05:31:42;;;;;;;47.87;13.57;;;13.10;54.20;;;;;;5051104;28;20235;-91
2023/03/06 05:34:12;;;;;;;63.57;15.40;;;13.20;54.30;;;;;;5050911;28;20200;-91
2023/03/06 05:36:39;;;;;;;54.07;14.23;;;13.20;54.90;;;;;;5050638;28;20216;-91
2023/03/06 05:42:05;;;;;;;42.67;13.43;;;13.10;54.20;;;;;;5033306;28;20208;-91
2023/03/06 05:44:34;;;;;;;46.83;13.83;;;13.20;54.30;;;;;;5051887;28;20218;-91
2023/03/06 05:47:02;;;;;;;64.17;15.37;;;13.10;54.20;;;;;;5048406;28;20662;-91
2023/03/06 05:49:32;;;;;;;46.90;13.50;;;13.10;54.20;;;;;;5050895;28;20210;-91
2023/03/06 05:51:59;;;;;;;74.10;16.60;;;13.10;54.20;;;;;;5050326;28;20557;-90
2023/03/06 05:54:26;;;;;;;56.70;14.80;;;13.10;54.20;;;;;;5051479;28;20222;-91
2023/03/06 05:56:53;;;;;;;61.00;15.20;;;13.10;54.20;;;;;;5048283;28;20207;-91
2023/03/06 05:59:40;;;;;;;50.47;12.67;;;13.10;54.20;;;;;;5050771;28;20222;-91
2023/03/06 06:02:07;;;;;;;46.97;14.30;;;13.10;54.20;;;;;;5056935;28;20202;-90
2023/03/06 06:04:44;;;;;;;56.90;15.20;;;13.10;54.20;;;;;;5056911;28;20208;-92
2023/03/06 06:07:14;;;;;;;50.47;14.07;;;13.10;54.10;;;;;;5049874;28;20199;-91
2023/03/06 06:09:44;;;;;;;44.23;13.60;;;13.10;54.20;;;;;;5051297;28;20222;-91
2023/03/06 06:12:12;;;;;;;47.87;13.77;;;13.10;54.20;;;;;;5051390;28;20250;-90
2023/03/06 06:14:42;;;;;;;40.63;13.37;;;13.20;54.30;;;;;;5052361;28;20200;-91
2023/03/06 06:17:13;;;;;;;45.50;13.50;;;13.10;54.10;;;;;;5043684;28;20252;-92
2023/03/06 06:19:41;;;;;;;53.17;14.80;;;13.20;54.20;;;;;;5045866;28;20266;-92
2023/03/06 06:22:08;;;;;;;53.77;14.53;;;13.10;54.20;;;;;;5049578;28;20210;-91
2023/03/06 06:24:35;;;;;;;43.70;13.33;;;13.10;54.20;;;;;;5051141;28;21033;-91
2023/03/06 06:27:03;;;;;;;41.33;13.20;;;13.10;54.10;;;;;;5050202;28;20290;-91
2023/03/06 06:29:30;;;;;;;51.27;14.30;;;13.10;54.20;;;;;;5048537;28;20202;-90
2023/03/06 06:31:59;;;;;;;53.13;14.67;;;13.10;54.20;;;;;;5049703;28;20388;-91
2023/03/06 06:34:26;;;;;;;74.43;16.83;;;13.10;54.20;;;;;;5041746;28;20219;-91
2023/03/06 06:36:54;;;;;;;53.40;14.10;;;13.10;54.80;;;;;;5049842;28;20214;-91
2023/03/06 06:39:23;;;;;;;53.67;14.50;;;13.10;54.80;;;;;;5049553;28;20250;-91
2023/03/06 06:41:50;;;;;;;50.00;14.10;;;13.10;54.20;;;;;;5048491;28;20207;-92
2023/03/06 06:44:21;;;;;;;45.57;13.87;;;13.10;54.20;;;;;;5050178;28;20277;-91
2023/03/06 06:46:49;;;;;;;60.43;15.50;;;13.00;54.10;;;;;;5047491;28;20207;-91
2023/03/06 06:49:17;;;;;;;38.87;13.13;;;13.10;54.20;;;;;;5047488;28;20988;-91
2023/03/06 06:51:44;;;;;;;60.73;15.67;;;13.10;54.20;;;;;;5048950;28;20237;-93
2023/03/06 06:54:12;;;;;;;56.60;15.00;;;13.00;54.10;;;;;;5048954;28;20215;-90
2023/03/06 06:56:39;;;;;;;39.37;13.47;;;13.00;54.10;;;;;;5047630;28;20315;-91
2023/03/06 06:59:07;;;;;;;39.10;12.90;;;13.00;54.10;;;;;;5036240;28;20214;-92
2023/03/06 07:01:34;;;;;;;65.73;16.23;;;13.00;54.10;;;;;;5043195;28;20813;-90
2023/03/06 07:04:01;;;;;;;47.67;14.57;;;13.10;54.20;;;;;;5047978;28;20295;-90
2023/03/06 07:06:30;;;;;;;52.33;14.50;;;13.00;54.10;;;;;;5049147;28;20553;-90
2023/03/06 07:08:56;;;;;;;47.00;13.90;;;13.00;54.10;;;;;;5048729;28;20204;-90
2023/03/06 07:11:23;;;;;;;52.13;14.87;;;13.20;54.30;;;;;;5047776;28;20199;-89
2023/03/06 07:13:54;;;;;;;53.40;15.37;;;13.00;54.10;;;;;;5042718;28;20216;-93
2023/03/06 07:16:21;;;;;;;56.00;15.27;;;13.00;54.10;;;;;;5047878;28;20209;-92
2023/03/06 07:18:48;;;;;;;73.97;17.87;;;13.00;54.10;;;;;;5047250;28;20204;-93
2023/03/06 07:21:15;;;;;;;56.33;15.53;;;13.00;54.10;;;;;;5047096;28;20225;-92
2023/03/06 07:23:43;;;;;;;45.20;13.20;;;13.00;54.10;;;;;;5049376;28;20234;-91
2023/03/06 07:26:10;;;;;;;51.03;16.23;;;13.00;54.10;;;;;;5047505;28;20301;-91
2023/03/06 07:28:37;;;;;;;57.63;14.77;;;13.00;54.10;;;;;;5047678;28;20565;-91
2023/03/06 07:31:08;;;;;;;47.50;14.60;;;13.00;54.10;;;;;;5047845;28;20206;-92
2023/03/06 07:33:35;;;;;;;51.30;14.90;;;13.00;54.10;;;;;;5048401;28;20221;-91
2023/03/06 07:36:02;;;;;;;43.70;14.40;;;13.00;54.10;;;;;;5049012;28;20202;-88
2023/03/06 07:38:29;;;;;;;51.43;15.03;;;13.00;54.20;;;;;;5046709;28;20203;-90
2023/03/06 07:40:57;;;;;;;42.53;14.33;;;13.10;54.20;;;;;;5046947;28;20249;-91
2023/03/06 07:43:24;;;;;;;42.10;14.33;;;13.00;54.10;;;;;;5048267;28;20567;-89
2023/03/06 07:45:56;;;;;;;52.03;14.40;;;12.90;54.10;;;;;;5047496;28;20199;-89
2023/03/06 07:48:23;;;;;;;47.73;14.63;;;13.00;54.10;;;;;;5047412;28;20208;-89
2023/03/06 07:50:56;;;;;;;54.50;15.23;;;13.10;54.30;;;;;;5048189;28;20198;-89
2023/03/06 07:53:23;;;;;;;41.40;13.60;;;13.00;54.20;;;;;;5047705;28;20221;-88
2023/03/06 07:55:50;;;;;;;62.13;16.03;;;13.00;54.20;;;;;;5043859;28;20203;-89
2023/03/06 07:58:18;;;;;;;72.27;16.70;;;13.00;54.10;;;;;;5043524;28;20211;-88
2023/03/06 08:00:45;;;;;;;60.33;15.30;;;12.90;54.10;;;;;;5045591;28;20237;-89
2023/03/06 08:03:13;;;;;;;65.93;16.07;;;13.00;54.20;;;;;;5037047;28;20222;-88
2023/03/06 08:05:40;;;;;;;47.97;13.97;;;13.00;54.20;;;;;;5033651;28;20206;-88
2023/03/06 08:08:08;;;;;;;48.23;13.67;;;13.00;54.20;;;;;;5047460;28;20203;-88
2023/03/06 08:10:35;;;;;;;60.53;15.40;;;12.90;54.10;;;;;;5045505;28;20216;-88
2023/03/06 08:13:01;;;;;;;45.17;13.87;;;13.00;54.20;;;;;;5047760;28;20202;-89
2023/03/06 08:15:30;;;;;;;46.63;13.67;;;13.00;54.20;;;;;;5046800;28;20203;-91
2023/03/06 08:17:57;;;;;;;70.80;15.40;;;12.90;54.20;;;;;;5045808;28;20970;-89
2023/03/06 08:20:23;;;;;;;43.13;14.00;;;13.00;54.20;;;;;;5044557;28;20578;-88
2023/03/06 08:22:50;;;;;;;50.23;13.67;;;12.90;54.10;;;;;;5047706;28;20576;-88
2023/03/06 08:25:17;;;;;;;47.70;14.93;;;13.00;54.20;;;;;;5045323;28;20719;-90
2023/03/06 08:27:46;;;;;;;48.37;13.90;;;13.00;54.30;;;;;;5045622;28;20206;-89
2023/03/06 08:30:13;;;;;;;51.27;13.77;;;13.00;54.30;;;;;;5046768;28;20201;-88
2023/03/06 08:32:42;;;;;;;50.47;13.33;;;12.90;54.20;;;;;;5046051;28;20287;-88
2023/03/06 08:35:09;;;;;;;43.33;13.43;;;12.90;54.20;;;;;;5048196;28;20208;-91
2023/03/06 08:37:36;;;;;;;52.93;13.97;;;13.00;54.30;;;;;;5047537;28;20202;-88
2023/03/06 08:40:04;;;;;;;50.43;13.63;;;12.90;54.30;;;;;;5046009;28;20239;-91
2023/03/06 08:42:31;;;;;;;50.83;14.60;;;13.00;54.30;;;;;;5046090;28;20211;-87
2023/03/06 08:44:58;;;;;;;43.77;13.33;;;12.90;54.30;;;;;;5047221;28;20210;-90
2023/03/06 08:47:25;;;;;;;64.83;14.70;;;13.00;54.30;;;;;;5047413;28;20213;-93
2023/03/06 08:49:53;;;;;;;56.13;13.60;;;12.90;54.30;;;;;;5046746;28;20573;-89
2023/03/06 08:52:20;;;;;;;52.13;13.60;;;13.00;54.40;;;;;;5042863;28;20197;-89
2023/03/06 08:54:47;;;;;;;57.53;15.17;;;13.00;54.30;;;;;;5046177;28;20206;-90
2023/03/06 08:57:14;;;;;;;79.37;16.63;;;13.00;54.30;;;;;;5041295;28;20207;-89
2023/03/06 08:59:41;;;;;;;61.97;15.70;;;13.00;54.20;;;;;;5030095;28;20664;-88
2023/03/06 09:02:13;;;;;;;49.40;14.90;;;13.00;54.20;;;;;;5033472;28;20716;-88
2023/03/06 09:04:40;;;;;;;64.23;15.80;;;13.00;54.20;;;;;;5047337;28;20210;-90
2023/03/06 09:07:10;;;;;;;42.97;13.93;;;13.00;54.10;;;;;;5047141;28;20199;-90
2023/03/06 09:09:36;;;;;;;60.43;15.23;;;13.00;54.10;;;;;;5045551;28;20354;-90
2023/03/06 09:12:03;;;;;;;61.07;17.83;;;13.00;54.10;;;;;;5047453;28;20260;-89
2023/03/06 09:14:31;;;;;;;71.60;17.83;;;13.00;54.10;;;;;;5047616;28;20208;-89
2023/03/06 09:16:58;;;;;;;58.77;16.57;;;13.00;54.10;;;;;;5047012;28;20237;-91
2023/03/06 09:19:25;;;;;;;58.90;15.63;;;13.00;54.10;;;;;;5041348;28;20203;-93
2023/03/06 09:21:52;;;;;;;64.97;15.80;;;13.00;54.00;;;;;;5069742;28;20227;-89
2023/03/06 09:24:20;;;;;;;53.03;15.70;;;13.10;54.10;;;;;;5066205;28;20198;-89
2023/03/06 09:26:47;;;;;;;59.70;15.70;;;13.00;54.00;;;;;;5043281;28;20204;-91
2023/03/06 09:29:16;;;;;;;45.77;14.60;;;13.10;54.10;;;;;;5051312;28;20194;-94
2023/03/06 09:31:50;;;;;;;39.43;14.60;;;13.00;54.10;;;;;;5049979;28;20231;-92
2023/03/06 09:34:17;;;;;;;62.27;15.27;;;13.00;54.70;;;;;;5046164;28;20286;-90
2023/03/06 09:36:44;;;;;;;45.73;13.37;;;12.90;54.10;;;;;;5046869;28;20219;-90
2023/03/06 09:39:11;;;;;;;53.53;13.80;;;13.00;54.20;;;;;;5048673;28;20202;-90
2023/03/06 09:41:41;;;;;;;46.57;13.83;;;13.00;54.30;;;;;;5047476;28;20228;-91
2023/03/06 09:44:15;;;;;;;48.13;13.93;;;13.10;54.40;;;;;;5049097;28;20206;-90
2023/03/06 09:46:50;;;;;;;49.03;13.57;;;13.00;54.30;;;;;;5049956;28;20203;-90
2023/03/06 09:49:37;;;;;;;50.13;13.73;;;13.00;54.30;;;;;;5051514;28;20214;-89
2023/03/06 09:52:15;;;;;;;45.63;13.33;;;13.10;54.50;;;;;;5050171;28;20235;-91
2023/03/06 09:54:45;;;;;;;64.87;14.90;;;13.10;54.50;;;;;;5035305;28;20204;-93
2023/03/06 09:57:21;;;;;;;47.83;12.93;;;13.10;54.50;;;;;;5041883;28;20188;-90
2023/03/06 09:59:52;;;;;;;50.63;13.33;;;13.10;54.50;;;;;;5050405;28;20204;-90
2023/03/06 10:02:24;;;;;;;46.83;12.47;;;13.10;54.50;;;;;;5051231;28;20245;-90
2023/03/06 10:04:58;;;;;;;51.70;12.20;;;13.10;54.50;;;;;;5050567;28;20204;-94
2023/03/06 10:07:33;;;;;;;44.50;13.30;;;13.10;54.50;;;;;;5050607;28;20269;-90
2023/03/06 10:10:05;;;;;;;51.77;12.70;;;13.10;54.50;;;;;;5045264;28;20240;-91
2023/03/06 10:12:37;;;;;;;43.93;12.70;;;13.20;54.50;;;;;;5051061;28;20203;-93
2023/03/06 10:15:14;;;;;;;60.27;13.73;;;13.30;54.60;;;;;;5050231;28;20208;-90
2023/03/06 10:17:42;;;;;;;51.40;13.07;;;13.30;54.60;;;;;;5050181;28;20285;-90
2023/03/06 10:20:21;;;;;;;45.80;13.37;;;13.30;54.60;;;;;;5048091;28;20238;-90
2023/03/06 10:23:04;;;;;;;49.60;13.00;;;13.20;54.50;;;;;;5050451;28;20188;-89
2023/03/06 10:25:36;;;;;;;47.53;13.10;;;13.30;54.60;;;;;;5045885;28;20294;-89
2023/03/06 10:28:15;;;;;;;50.17;12.43;;;13.30;54.60;;;;;;5049557;28;20210;-89
2023/03/06 10:30:50;;;;;;;51.93;13.23;;;13.30;54.60;;;;;;5050236;28;20208;-93
2023/03/06 10:33:27;;;;;;;55.73;13.60;;;13.40;54.70;;;;;;5044058;28;20207;-93
2023/03/06 10:35:57;;;;;;;48.30;13.20;;;13.40;54.70;;;;;;5048799;28;20302;-93
2023/03/06 10:38:26;;;;;;;46.63;12.77;;;13.40;54.70;;;;;;5040777;28;20227;-92
2023/03/06 10:41:07;;;;;;;52.13;12.30;;;13.40;54.70;;;;;;5048923;28;20319;-91
2023/03/06 10:43:37;;;;;;;52.50;12.87;;;13.40;54.70;;;;;;5045293;28;20312;-92
2023/03/06 10:46:07;;;;;;;44.37;12.07;;;13.40;54.70;;;;;;5045784;28;20546;-94
2023/03/06 10:48:36;;;;;;;50.07;13.60;;;13.50;54.80;;;;;;5049795;28;20210;-92
2023/03/06 10:51:20;;;;;;;48.13;12.93;;;13.50;54.80;;;;;;5050163;28;20288;-92
2023/03/06 10:53:53;;;;;;;46.80;13.50;;;13.50;54.80;;;;;;5049590;28;20208;-92
2023/03/06 10:56:29;;;;;;;66.00;13.43;;;13.50;54.80;;;;;;5048410;28;20228;-88
2023/03/06 10:59:11;;;;;;;71.43;13.90;;;13.70;55.00;;;;;;5048217;28;20215;-87
2023/03/06 11:01:39;;;;;;;75.03;14.60;;;13.60;54.90;;;;;;5036366;28;20231;-96
2023/03/06 11:04:21;;;;;;;72.17;14.63;;;13.60;54.90;;;;;;5037921;28;20208;-91
2023/03/06 11:06:49;;;;;;;49.87;12.70;;;13.60;54.90;;;;;;5043743;28;20211;-92
2023/03/06 11:09:22;;;;;;;50.43;13.57;;;13.70;54.90;;;;;;5048656;28;20289;-90
2023/03/06 11:11:49;;;;;;;52.87;15.03;;;13.70;54.90;;;;;;5046596;28;20200;-88
2023/03/06 11:14:19;;;;;;;51.80;16.10;;;13.70;54.90;;;;;;5046482;28;20205;-91
2023/03/06 11:16:51;;;;;;;74.03;16.67;;;13.70;54.90;;;;;;5045561;28;20303;-89
2023/03/06 11:19:21;;;;;;;54.70;15.43;;;13.80;55.50;;;;;;5045287;28;20231;-89
2023/03/06 11:22:00;;;;;;;64.50;15.97;;;13.80;54.90;;;;;;5041843;28;20230;-89
2023/03/06 11:24:34;;;;;;;51.30;14.63;;;13.80;54.80;;;;;;5032042;28;20209;-88
2023/03/06 11:27:10;;;;;;;60.30;15.90;;;13.90;54.90;;;;;;5038222;28;20202;-88
2023/03/06 11:29:42;;;;;;;45.13;15.13;;;13.90;54.90;;;;;;5047855;28;20203;-88
2023/03/06 11:32:14;;;;;;;49.90;13.97;;;13.90;54.90;;;;;;5036591;28;20208;-87
2023/03/06 11:34:47;;;;;;;57.90;16.00;;;13.90;54.90;;;;;;5041731;28;20262;-87
2023/03/06 11:37:23;;;;;;;75.10;16.33;;;13.90;54.90;;;;;;5041251;28;20211;-87
2023/03/06 11:39:58;;;;;;;68.90;15.70;;;13.90;54.90;;;;;;5047420;28;20200;-88
2023/03/06 11:42:29;;;;;;;57.10;15.23;;;13.90;54.90;;;;;;5035176;28;20658;-90
2023/03/06 11:45:09;;;;;;;48.83;14.03;;;14.00;55.00;;;;;;5047912;28;20586;-89
2023/03/06 11:47:44;;;;;;;62.33;16.67;;;14.00;55.00;;;;;;5045820;28;20205;-90
2023/03/06 11:50:19;;;;;;;58.63;15.43;;;14.00;55.00;;;;;;5041518;28;20200;-88
2023/03/06 11:52:56;;;;;;;53.63;14.87;;;14.00;54.90;;;;;;5029879;28;20216;-88
2023/03/06 11:55:47;;;;;;;72.03;16.43;;;14.00;54.90;;;;;;5042565;28;20270;-95
2023/03/06 12:01:35;;;;;;;41.13;15.33;;;14.00;54.90;;;;;;5028357;28;20654;-95
2023/03/06 12:04:35;;;;;;;44.27;15.30;;;14.10;55.00;;;;;;5039206;28;20589;-95
2023/03/06 12:07:20;;;;;;;71.90;16.33;;;14.10;55.00;;;;;;5049568;28;20262;-95
2023/03/06 12:09:54;;;;;;;48.60;14.90;;;14.10;54.90;;;;;;5049651;28;20280;-95
2023/03/06 12:12:53;;;;;;;58.70;16.73;;;14.10;54.90;;;;;;5050296;28;20200;-95
2023/03/06 12:15:29;;;;;;;54.43;15.67;;;14.10;55.00;;;;;;5042768;28;20282;-96
2023/03/06 12:18:33;;;;;;;50.13;14.50;;;14.20;55.00;;;;;;5049644;28;20230;-96
2023/03/06 12:21:07;;;;;;;43.40;13.73;;;14.20;55.10;;;;;;5049009;28;20204;-96
2023/03/06 12:24:02;;;;;;;66.13;15.17;;;14.20;55.00;;;;;;5049690;28;20640;-95
2023/03/06 12:26:53;;;;;;;40.47;12.70;;;14.20;55.10;;;;;;5050271;28;20214;-95
2023/03/06 12:29:36;;;;;;;44.23;14.13;;;14.20;55.10;;;;;;5050034;28;20220;-95
2023/03/06 12:32:33;;;;;;;47.53;12.97;;;14.20;55.10;;;;;;5051252;28;20215;-95
2023/03/06 12:35:30;;;;;;;46.67;12.37;;;14.30;55.20;;;;;;5027138;28;20209;-95
2023/03/06 12:38:38;;;;;;;66.77;14.30;;;14.30;55.20;;;;;;4994715;28;20298;-95
2023/03/06 12:41:21;;;;;;;52.27;13.30;;;14.30;55.20;;;;;;5032205;28;20236;-96
2023/03/06 12:44:25;;;;;;;53.43;13.60;;;14.30;55.20;;;;;;5053042;28;20200;-95
2023/03/06 12:46:57;;;;;;;43.07;11.80;;;14.40;55.20;;;;;;5049573;28;20250;-95
2023/03/06 12:49:41;;;;;;;;;;;;;;;;;;;;;
2023/03/06 12:52:22;;;;;;;44.67;12.10;;;14.40;55.20;;;;;;5052641;28;20201;-96
2023/03/06 12:55:08;;;;;;;34.70;10.73;;;14.30;55.20;;;;;;5054707;28;20679;-96
2023/03/06 12:57:41;;;;;;;38.13;10.97;;;14.40;55.20;;;;;;5054018;28;20656;-95
2023/03/06 13:00:40;;;;;;;30.07;10.47;;;14.40;55.20;;;;;;5055538;28;20212;-95
2023/03/06 13:03:17;;;;;;;36.63;10.97;;;14.40;55.20;;;;;;5051116;28;20657;-96